createdAt,value
2024-04-23T00:00:35.018Z,0.60
2024-04-23T00:05:38.785Z,0.40
2024-04-23T00:10:43.874Z,0.60
2024-04-23T00:15:51.239Z,0.40
2024-04-23T00:20:57.142Z,0.20
2024-04-23T00:26:01.169Z,0.10
2024-04-23T00:31:08.868Z,0.10
2024-04-23T00:36:12.736Z,0.10
2024-04-23T00:41:17.687Z,0.10
2024-04-23T00:46:27.913Z,0.00
2024-04-23T00:51:32.016Z,0.00
2024-04-23T00:56:37.043Z,-0.10
2024-04-23T01:01:46.396Z,-0.10
2024-04-23T01:06:51.622Z,-0.30
2024-04-23T01:11:55.733Z,-0.40
2024-04-23T01:17:05.804Z,-0.30
2024-04-23T01:22:14.695Z,-0.40
2024-04-23T01:27:22.382Z,-0.40
2024-04-23T01:32:29.276Z,-0.30
2024-04-23T01:37:35.558Z,-0.20
2024-04-23T01:42:43.026Z,-0.30
2024-04-23T01:47:47.799Z,-0.40
2024-04-23T01:52:51.695Z,-0.50
2024-04-23T01:57:58.448Z,-0.40
2024-04-23T02:03:02.942Z,-0.40
2024-04-23T02:08:07.684Z,-0.60
2024-04-23T02:13:14.314Z,-0.50
2024-04-23T02:18:18.394Z,-0.50
2024-04-23T02:23:22.975Z,-0.70
2024-04-23T02:28:29.919Z,-0.70
2024-04-23T02:33:34.413Z,-0.70
2024-04-23T02:38:38.464Z,-0.70
2024-04-23T02:43:47.326Z,-0.60
2024-04-23T02:48:51.435Z,-0.70
2024-04-23T02:53:56.858Z,-0.70
2024-04-23T02:59:03.612Z,-0.90
2024-04-23T03:04:07.578Z,-1.00
2024-04-23T03:09:12.039Z,-0.80
2024-04-23T03:14:18.782Z,-0.80
2024-04-23T03:19:24.550Z,-0.90
2024-04-23T03:24:28.803Z,-1.00
2024-04-23T03:29:35.705Z,-1.00
2024-04-23T03:34:39.787Z,-1.00
2024-04-23T03:39:44.086Z,-1.00
2024-04-23T03:44:51.832Z,-1.10
2024-04-23T03:49:57.657Z,-1.00
2024-04-23T03:55:01.455Z,-0.90
2024-04-23T04:00:09.377Z,-0.80
2024-04-23T04:05:31.833Z,-0.90
2024-04-23T04:10:35.885Z,-0.80
2024-04-23T04:15:42.965Z,-0.80
2024-04-23T04:20:47.623Z,-0.70
2024-04-23T04:25:51.831Z,-0.60
2024-04-23T04:30:58.898Z,-0.50
2024-04-23T04:36:02.667Z,-0.40
2024-04-23T04:41:07.544Z,-0.20
2024-04-23T04:46:16.188Z,0.20
2024-04-23T04:51:21.525Z,0.60
2024-04-23T04:56:28.052Z,0.80
2024-04-23T05:01:35.854Z,1.10
2024-04-23T05:06:39.639Z,1.30
2024-04-23T05:11:46.469Z,1.50
2024-04-23T05:16:53.416Z,2.00
2024-04-23T05:21:57.766Z,2.20
2024-04-23T05:27:02.740Z,2.30
2024-04-23T05:32:28.009Z,2.70
2024-04-23T05:37:31.858Z,2.90
2024-04-23T05:42:35.756Z,3.10
2024-04-23T05:48:19.229Z,3.00
2024-04-23T05:54:20.403Z,3.60
2024-04-23T05:59:46.267Z,4.60
2024-04-23T06:04:52.162Z,6.20
2024-04-23T06:10:09.824Z,8.50
2024-04-23T06:15:17.536Z,9.90
2024-04-23T06:20:22.173Z,9.90
2024-04-23T06:25:27.015Z,10.00
2024-04-23T06:30:34.600Z,11.90
2024-04-23T06:35:41.832Z,12.90
2024-04-23T06:40:52.167Z,13.90
2024-04-23T06:45:59.833Z,14.10
2024-04-23T06:51:05.384Z,14.50
2024-04-23T06:56:10.762Z,13.20
2024-04-23T07:01:17.829Z,13.90
2024-04-23T07:06:21.904Z,14.80
2024-04-23T07:11:26.388Z,15.10
2024-04-23T07:16:32.983Z,15.20
2024-04-23T07:21:36.702Z,15.60
2024-04-23T07:26:40.941Z,16.40
2024-04-23T07:31:49.854Z,14.40
2024-04-23T07:36:54.875Z,15.50
2024-04-23T07:42:01.167Z,15.60
2024-04-23T07:47:08.174Z,16.30
2024-04-23T07:52:12.134Z,16.80
2024-04-23T07:57:16.198Z,16.30
2024-04-23T08:02:22.910Z,16.90
2024-04-23T08:07:29.141Z,16.00
2024-04-23T08:12:33.023Z,15.60
2024-04-23T08:17:39.832Z,16.30
2024-04-23T08:22:43.858Z,17.00
2024-04-23T08:27:47.758Z,17.40
2024-04-23T08:32:56.133Z,17.20
2024-04-23T08:38:00.388Z,18.00
2024-04-23T08:43:15.312Z,17.80
2024-04-23T08:48:22.103Z,18.00
2024-04-23T08:53:28.996Z,17.30
2024-04-23T08:58:35.331Z,18.30
2024-04-23T09:03:45.784Z,17.70
2024-04-23T09:08:50.580Z,16.60
2024-04-23T09:13:57.728Z,16.40
2024-04-23T09:19:04.634Z,17.00
2024-04-23T09:24:09.907Z,17.20
2024-04-23T09:29:13.930Z,17.30
2024-04-23T09:34:32.402Z,18.60
2024-04-23T09:39:44.340Z,17.40
2024-04-23T09:44:51.878Z,17.40
2024-04-23T09:49:59.129Z,17.90
2024-04-23T09:55:05.293Z,18.30
2024-04-23T10:00:12.198Z,17.40
2024-04-23T10:05:27.174Z,17.60
2024-04-23T10:10:38.208Z,17.50
2024-04-23T10:15:52.211Z,18.00
2024-04-23T10:21:02.722Z,17.20
2024-04-23T10:26:08.518Z,17.20
2024-04-23T10:31:12.783Z,18.00
2024-04-23T10:36:20.804Z,17.40
2024-04-23T10:41:28.941Z,17.10
2024-04-23T10:46:33.348Z,16.90
2024-04-23T10:51:46.002Z,15.70
2024-04-23T10:56:57.833Z,16.30
2024-04-23T11:02:07.237Z,17.80
2024-04-23T11:07:24.329Z,16.30
2024-04-23T11:12:32.758Z,17.10
2024-04-23T11:17:41.793Z,18.00
2024-04-23T11:22:54.844Z,17.20
2024-04-23T11:27:59.796Z,17.60
2024-04-23T11:33:05.316Z,17.70
2024-04-23T11:38:12.099Z,17.30
2024-04-23T11:43:19.267Z,17.80
2024-04-23T11:48:23.201Z,17.60
2024-04-23T11:53:30.178Z,17.50
2024-04-23T11:58:38.858Z,17.00
2024-04-23T12:03:42.814Z,14.80
2024-04-23T12:08:51.250Z,13.70
2024-04-23T12:13:55.814Z,12.80
2024-04-23T12:19:00.454Z,12.50
2024-04-23T12:24:07.423Z,13.80
2024-04-23T12:29:14.832Z,13.60
2024-04-23T12:34:19.579Z,12.70
2024-04-23T12:39:27.338Z,12.80
2024-04-23T12:44:31.109Z,12.90
2024-04-23T12:49:36.804Z,14.30
2024-04-23T12:54:45.991Z,15.00
2024-04-23T12:59:51.195Z,15.10
2024-04-23T13:04:59.574Z,14.70
2024-04-23T13:10:07.998Z,13.50
2024-04-23T13:15:13.593Z,12.50
2024-04-23T13:20:18.325Z,12.10
2024-04-23T13:25:25.114Z,11.90
2024-04-23T13:30:29.015Z,11.80
2024-04-23T13:35:34.134Z,12.00
2024-04-23T13:40:40.656Z,12.20
2024-04-23T13:45:44.563Z,12.50
2024-04-23T13:50:49.854Z,12.40
2024-04-23T13:55:56.173Z,12.50
2024-04-23T14:01:06.594Z,13.10
2024-04-23T14:06:10.513Z,13.50
2024-04-23T14:11:17.237Z,13.50
2024-04-23T14:16:21.332Z,14.10
2024-04-23T14:21:26.487Z,13.60
2024-04-23T14:26:34.141Z,13.30
2024-04-23T14:31:41.486Z,12.90
2024-04-23T14:36:45.443Z,13.10
2024-04-23T14:41:52.926Z,12.90
2024-04-23T14:46:57.990Z,12.70
2024-04-23T14:52:02.300Z,12.80
2024-04-23T14:57:09.987Z,12.50
2024-04-23T15:02:16.870Z,11.30
2024-04-23T15:07:20.993Z,11.90
2024-04-23T15:12:28.806Z,12.20
2024-04-23T15:17:35.150Z,12.60
2024-04-23T15:22:39.194Z,12.60
2024-04-23T15:27:45.658Z,12.60
2024-04-23T15:32:53.006Z,12.50
2024-04-23T15:38:02.258Z,12.50
2024-04-23T15:43:11.680Z,12.00
2024-04-23T15:48:15.621Z,12.00
2024-04-23T15:53:20.233Z,11.50
2024-04-23T15:58:26.854Z,11.40
2024-04-23T16:03:35.605Z,11.50
2024-04-23T16:08:40.033Z,11.50
2024-04-23T16:13:46.794Z,11.30
2024-04-23T16:18:50.939Z,11.50
2024-04-23T16:23:59.041Z,11.30
2024-04-23T16:29:07.680Z,11.10
2024-04-23T16:34:11.725Z,10.90
2024-04-23T16:39:18.869Z,10.70
2024-04-23T16:44:26.615Z,10.20
2024-04-23T16:49:30.417Z,10.10
2024-04-23T16:54:34.264Z,10.00
2024-04-23T16:59:40.799Z,9.70
2024-04-23T17:04:47.978Z,9.50
2024-04-23T17:09:52.289Z,9.40
2024-04-23T17:15:00.038Z,9.20
2024-04-23T17:20:05.620Z,9.20
2024-04-23T17:25:10.454Z,9.10
2024-04-23T17:30:17.544Z,8.90
2024-04-23T17:35:21.476Z,8.90
2024-04-23T17:40:28.549Z,8.70
2024-04-23T17:45:38.534Z,8.70
2024-04-23T17:50:43.909Z,8.50
2024-04-23T17:55:47.935Z,8.30
2024-04-23T18:00:54.726Z,8.10
2024-04-23T18:06:03.921Z,8.00
2024-04-23T18:11:12.750Z,7.90
2024-04-23T18:16:20.007Z,7.90
2024-04-23T18:21:24.043Z,7.70
2024-04-23T18:26:27.985Z,7.70
2024-04-23T18:31:34.806Z,7.60
2024-04-23T18:36:38.848Z,7.50
2024-04-23T18:41:44.147Z,7.40
2024-04-23T18:46:50.715Z,7.30
2024-04-23T18:51:54.830Z,7.10
2024-04-23T18:56:59.044Z,7.00
2024-04-23T19:02:08.671Z,6.80
2024-04-23T19:07:15.981Z,6.70
2024-04-23T19:12:20.340Z,6.60
2024-04-23T19:17:29.103Z,6.50
2024-04-23T19:22:36.832Z,6.40
2024-04-23T19:27:40.638Z,6.40
2024-04-23T19:32:48.286Z,6.20
2024-04-23T19:37:52.226Z,6.10
2024-04-23T19:43:01.815Z,6.00
2024-04-23T19:48:14.492Z,5.70
2024-04-23T19:53:20.117Z,5.40
2024-04-23T19:58:44.863Z,5.50
2024-04-23T20:03:53.016Z,5.20
2024-04-23T20:08:57.578Z,5.20
2024-04-23T20:14:01.959Z,5.30
2024-04-23T20:19:11.286Z,5.40
2024-04-23T20:24:15.244Z,5.40
2024-04-23T20:29:19.559Z,5.40
2024-04-23T20:34:27.431Z,5.40
2024-04-23T20:39:33.930Z,5.40
2024-04-23T20:44:49.075Z,5.50
2024-04-23T20:49:55.340Z,5.60
2024-04-23T20:54:59.468Z,5.30
2024-04-23T21:00:09.430Z,5.50
2024-04-23T21:05:18.486Z,5.50
2024-04-23T21:10:23.767Z,5.40
2024-04-23T21:15:28.181Z,5.30
2024-04-23T21:20:35.363Z,5.20
2024-04-23T21:25:39.596Z,5.00
2024-04-23T21:30:43.474Z,5.10
2024-04-23T21:35:50.292Z,4.90
2024-04-23T21:41:04.434Z,5.00
2024-04-23T21:46:10.904Z,5.00
2024-04-23T21:51:20.254Z,5.00
2024-04-23T21:56:24.178Z,5.00
2024-04-23T22:01:28.538Z,5.00
2024-04-23T22:06:39.687Z,5.00
2024-04-23T22:11:43.822Z,4.90
2024-04-23T22:16:48.217Z,4.80
2024-04-23T22:21:55.226Z,4.80
2024-04-23T22:26:59.283Z,4.90
2024-04-23T22:32:03.104Z,4.70
2024-04-23T22:37:10.033Z,4.60
2024-04-23T22:42:14.132Z,4.60
2024-04-23T22:47:23.932Z,4.60
2024-04-23T22:52:30.944Z,4.60
2024-04-23T22:57:35.059Z,4.60
2024-04-23T23:02:39.404Z,4.70
2024-04-23T23:07:46.053Z,4.80
2024-04-23T23:12:49.961Z,4.70
2024-04-23T23:17:54.298Z,4.80
2024-04-23T23:23:01.209Z,4.60
2024-04-23T23:28:09.325Z,4.70
2024-04-23T23:33:13.660Z,4.70
2024-04-23T23:38:21.762Z,4.60
2024-04-23T23:43:25.528Z,4.70
2024-04-23T23:48:30.800Z,4.80
2024-04-23T23:53:37.282Z,4.60
2024-04-23T23:58:41.176Z,4.80
